M T Cape Bilbao — V7KG2 — position and weather

sailwx.info

Track history (hours):
 
Tides and Currents Weather Stations Pressure Air Temp Water Temp Dewpoint Dewpoint Depression Visibility Wind Speed Wind Dir Waves Ship Positions

M T Cape Bilbao

Last reported at 2018-Jun-12 17:33 UTC. Time now 2018-Jun-19 10:54 UTC.
Position N 09°11' W 079°52'.

Length 176 m; draft 7.1 m.

Type: Tanker. MMSI: 538002616.

Date/timePositionNaut miles runAvg speedWind from/ knotsBaromVisibWave heightAir tempDewpointWater temp
2018-Jun-12 17:33N 09°11' W 079°52'110.7
2018-Jun-12 17:28N 09°11' W 079°53'4 8.8
2018-Jun-12 17:00N 09°14' W 079°55'2 3.9
2018-Jun-12 16:30N 09°16' W 079°55'0 0.4
2018-Jun-12 16:00N 09°16' W 079°55'0 0.4
2018-Jun-12 15:12N 09°17' W 079°55'0 0.5
2018-Jun-12 14:59N 09°17' W 079°55'0 0.4
2018-Jun-12 14:30N 09°17' W 079°55'1 2.9
2018-Jun-12 14:00N 09°18' W 079°55'3 6.4
2018-Jun-12 13:30N 09°22' W 079°55'2 4.0
2018-Jun-12 13:01N 09°24' W 079°55'3 5.7
2018-Jun-12 12:31N 09°26' W 079°56'1 2.0
2018-Jun-12 12:00N 09°27' W 079°57'0 0.1
2018-Jun-12 11:24N 09°27' W 079°57'0 0.0
2018-Jun-12 10:57N 09°27' W 079°57'0 0.0
2018-Jun-12 10:24N 09°27' W 079°57'0 0.0
2018-Jun-12 10:00N 09°27' W 079°57'0 0.0
2018-Jun-12 07:30N 09°27' W 079°57'0 0.0
2018-Jun-12 06:54N 09°27' W 079°57'0 0.0
2018-Jun-12 06:18N 09°27' W 079°57'0 0.1
2018-Jun-12 06:00N 09°27' W 079°57'0 0.0
2018-Jun-12 05:30N 09°27' W 079°57'0 0.0
2018-Jun-12 04:54N 09°27' W 079°57'0 0.0
2018-Jun-12 04:30N 09°27' W 079°57'0 0.0
2018-Jun-12 03:54N 09°27' W 079°57'0 0.0
2018-Jun-12 03:03N 09°27' W 079°57'0 0.0
2018-Jun-12 01:30N 09°27' W 079°57'0 0.0
2018-Jun-12 00:54N 09°27' W 079°57'0 0.0
2018-Jun-12 00:30N 09°27' W 079°57'0 0.0
2018-Jun-12 00:00N 09°27' W 079°57'0 0.0
2018-Jun-11 23:21N 09°27' W 079°57'0 0.1
2018-Jun-11 22:51N 09°27' W 079°57'0 0.0
2018-Jun-11 22:27N 09°27' W 079°57'0 0.0
2018-Jun-11 22:00N 09°27' W 079°57'0 0.0
2018-Jun-11 21:06N 09°27' W 079°57'0 0.0
2018-Jun-11 20:54N 09°27' W 079°57'0 0.0
2018-Jun-11 20:30N 09°27' W 079°57'0 0.1
2018-Jun-11 20:00N 09°27' W 079°57'0 0.0
2018-Jun-11 19:30N 09°27' W 079°57'0 0.0
2018-Jun-11 19:00N 09°27' W 079°57'0 0.0
2018-Jun-11 18:30N 09°27' W 079°57'0 0.0
2018-Jun-11 18:00N 09°27' W 079°57'0 0.1
2018-Jun-11 17:30N 09°27' W 079°57'0 0.1
2018-Jun-11 16:54N 09°27' W 079°57'0 0.1
2018-Jun-11 16:30N 09°27' W 079°57'0 0.0
2018-Jun-11 16:00N 09°27' W 079°57'0 0.0
2018-Jun-11 15:30N 09°27' W 079°57'0 0.0
2018-Jun-11 15:00N 09°27' W 079°57'0 0.0
2018-Jun-11 14:30N 09°27' W 079°57'0 0.0
2018-Jun-11 14:00N 09°27' W 079°57'0 0.0
2018-Jun-11 13:30N 09°27' W 079°57'0 0.0
2018-Jun-11 13:00N 09°27' W 079°57'0 0.0
2018-Jun-11 12:30N 09°27' W 079°57'0 0.0
2018-Jun-11 12:00N 09°27' W 079°57'0 0.0
2018-Jun-11 11:30N 09°27' W 079°57'0 0.0
2018-Jun-11 11:00N 09°27' W 079°57'0 0.0
2018-Jun-11 10:30N 09°27' W 079°57'0 0.0
2018-Jun-11 10:00N 09°27' W 079°57'0 0.0
2018-Jun-11 09:30N 09°27' W 079°57'0 0.0
2018-Jun-11 09:00N 09°27' W 079°57'0 0.0
2018-Jun-11 08:30N 09°27' W 079°57'0 0.0
2018-Jun-11 08:00N 09°27' W 079°57'0 0.0
2018-Jun-11 07:30N 09°27' W 079°57'0 0.0
2018-Jun-11 07:00N 09°27' W 079°57'0 0.1
2018-Jun-11 06:30N 09°27' W 079°57'1 2.8
2018-Jun-11 06:00N 09°27' W 079°56'1 2.4
2018-Jun-11 05:30N 09°27' W 079°55'1 2.7
2018-Jun-11 05:00N 09°29' W 079°54'4 8.3
2018-Jun-11 04:30N 09°33' W 079°53'610.2
2018-Jun-11 03:58N 09°38' W 079°52'  
2018-Jun-05 06:24N 28°56' W 094°26'510.4
2018-Jun-05 05:54N 29°01' W 094°26'15 9.8
2018-Jun-05 04:20N 29°15' W 094°34'310.1
2018-Jun-05 04:00N 29°18' W 094°36'511.2
2018-Jun-05 03:30N 29°21' W 094°42'5 9.2
2018-Jun-05 03:00N 29°19' W 094°47'2 3.1
2018-Jun-05 02:30N 29°19' W 094°48'0 0.0
2018-Jun-05 02:00N 29°19' W 094°48'0 0.0
2018-Jun-05 01:28N 29°19' W 094°48'0 0.0
2018-Jun-05 00:58N 29°19' W 094°48'0 0.0
2018-Jun-05 00:28N 29°19' W 094°48'0 0.0
2018-Jun-04 23:58N 29°19' W 094°48'0 0.0
2018-Jun-04 23:28N 29°19' W 094°48'0 0.0
2018-Jun-04 22:55N 29°19' W 094°48'0 0.0
2018-Jun-04 22:22N 29°18' W 094°48'0 0.1
2018-Jun-04 21:58N 29°19' W 094°48'0 0.0
2018-Jun-04 21:28N 29°19' W 094°48'0 0.0
2018-Jun-04 20:58N 29°18' W 094°48'0 0.0
2018-Jun-04 20:28N 29°19' W 094°48'0 0.0
2018-Jun-04 19:55N 29°19' W 094°48'0 0.0
2018-Jun-04 19:28N 29°19' W 094°48'0 0.0
2018-Jun-04 18:58N 29°19' W 094°48'0 0.0
2018-Jun-04 18:28N 29°19' W 094°48'0 0.0
2018-Jun-04 17:52N 29°19' W 094°48'0 0.0
2018-Jun-04 17:28N 29°19' W 094°48'0 0.0
2018-Jun-04 16:58N 29°18' W 094°48'0 0.0
2018-Jun-04 15:37N 29°19' W 094°48'0 0.0
2018-Jun-04 14:37N 29°19' W 094°48'0 0.0
2018-Jun-04 14:25N 29°19' W 094°48'0 0.0
2018-Jun-04 13:52N 29°19' W 094°48'0 0.0
2018-Jun-04 13:25N 29°19' W 094°48'0 0.0
2018-Jun-04 12:58N 29°19' W 094°48'0 0.0
2018-Jun-04 12:28N 29°19' W 094°48'0 0.0
2018-Jun-04 11:55N 29°19' W 094°48'0 0.0
2018-Jun-04 11:28N 29°18' W 094°48'0 0.0
2018-Jun-04 10:58N 29°19' W 094°48'0 0.0
2018-Jun-04 10:28N 29°19' W 094°48'0 0.0
2018-Jun-04 09:58N 29°19' W 094°48'0 0.0
2018-Jun-04 09:28N 29°19' W 094°48'0 0.0
2018-Jun-04 08:58N 29°19' W 094°48'0 0.0
2018-Jun-04 08:28N 29°19' W 094°48'0 0.0
2018-Jun-04 07:58N 29°19' W 094°48'0 0.0
2018-Jun-04 07:25N 29°19' W 094°48'0 0.0
2018-Jun-04 06:58N 29°19' W 094°48'0 0.0
2018-Jun-04 06:25N 29°19' W 094°48'0 0.0
2018-Jun-04 05:49N 29°19' W 094°48'0 0.0
2018-Jun-04 05:25N 29°19' W 094°48'0 0.0
2018-Jun-04 04:55N 29°19' W 094°48'0 0.0
2018-Jun-04 04:28N 29°19' W 094°48'0 0.0
2018-Jun-04 03:58N 29°19' W 094°48'0 0.0
2018-Jun-04 03:25N 29°19' W 094°48'0 0.0
2018-Jun-04 02:58N 29°19' W 094°48'0 0.0
2018-Jun-04 02:28N 29°18' W 094°48'0 0.0
2018-Jun-04 01:55N 29°19' W 094°48'0 0.0
2018-Jun-04 01:28N 29°19' W 094°48'0 0.0
2018-Jun-04 00:55N 29°19' W 094°48'0 0.0
2018-Jun-04 00:25N 29°19' W 094°48'0 0.0
2018-Jun-03 23:55N 29°19' W 094°48'0 0.0
2018-Jun-03 23:25N 29°19' W 094°48'0 0.0
2018-Jun-03 22:58N 29°19' W 094°48'0 0.0
2018-Jun-03 22:28N 29°18' W 094°48'0 0.0
2018-Jun-03 21:58N 29°19' W 094°48'0 0.0
2018-Jun-03 21:25N 29°19' W 094°48'0 0.0
2018-Jun-03 20:58N 29°18' W 094°48'0 0.0
2018-Jun-03 20:25N 29°19' W 094°48'0 0.0
2018-Jun-03 19:55N 29°19' W 094°48'0 0.0
2018-Jun-03 19:28N 29°19' W 094°48'0 0.0
2018-Jun-03 18:58N 29°19' W 094°48'0 0.0
2018-Jun-03 18:28N 29°19' W 094°48'0 0.0
2018-Jun-03 17:58N 29°19' W 094°48'0 0.0
2018-Jun-03 17:28N 29°19' W 094°48'0 0.0
2018-Jun-03 16:58N 29°18' W 094°48'0 0.0
2018-Jun-03 16:22N 29°19' W 094°48'0 0.0
2018-Jun-03 15:55N 29°19' W 094°48'0 0.0
2018-Jun-03 15:28N 29°19' W 094°48'0 0.0
2018-Jun-03 14:55N 29°19' W 094°48'0 0.0
2018-Jun-03 14:25N 29°19' W 094°48'0 0.0
2018-Jun-03 13:55N 29°19' W 094°48'0 0.0
2018-Jun-03 13:28N 29°19' W 094°48'0 0.0
2018-Jun-03 12:58N 29°19' W 094°48'0 0.0
2018-Jun-03 12:28N 29°19' W 094°48'0 0.0
2018-Jun-03 11:58N 29°19' W 094°48'0 0.0
2018-Jun-03 11:28N 29°19' W 094°48'0 0.0
2018-Jun-03 10:46N 29°19' W 094°48'0 0.0
2018-Jun-03 10:28N 29°19' W 094°48'0 0.0
2018-Jun-03 09:58N 29°19' W 094°48'0 0.0
2018-Jun-03 09:28N 29°19' W 094°48'0 0.0
2018-Jun-03 08:58N 29°19' W 094°48'0 0.0
2018-Jun-03 08:25N 29°19' W 094°48'0 0.0
2018-Jun-03 07:58N 29°19' W 094°48'0 0.0
2018-Jun-03 07:28N 29°18' W 094°48'0 0.0
2018-Jun-03 06:52N 29°19' W 094°48'0 0.0
2018-Jun-03 06:25N 29°19' W 094°48'0 0.0
2018-Jun-03 05:58N 29°18' W 094°48'0 0.0
2018-Jun-03 05:28N 29°19' W 094°48'0 0.0
2018-Jun-03 04:55N 29°19' W 094°48'0 0.0
2018-Jun-03 04:19N 29°19' W 094°48'0 0.0
2018-Jun-03 03:58N 29°19' W 094°48'0 0.0
2018-Jun-03 03:28N 29°19' W 094°48'0 0.0
2018-Jun-03 02:55N 29°19' W 094°48'0 0.0
2018-Jun-03 02:25N 29°19' W 094°48'0 0.0
2018-Jun-03 01:55N 29°19' W 094°48'0 0.0
2018-Jun-03 01:28N 29°18' W 094°48'0 0.0
2018-Jun-03 00:58N 29°18' W 094°48'0 0.0
2018-Jun-03 00:28N 29°19' W 094°48'0 0.0
2018-Jun-02 23:52N 29°19' W 094°48'0 0.0
2018-Jun-02 23:31N 29°19' W 094°48'0 0.0
2018-Jun-02 22:58N 29°18' W 094°48'0 0.0
2018-Jun-02 22:28N 29°19' W 094°48'0 0.0
2018-Jun-02 21:55N 29°19' W 094°48'0 0.0
2018-Jun-02 21:28N 29°19' W 094°48'0 0.0
2018-Jun-02 20:58N 29°19' W 094°48'0 0.0
2018-Jun-02 20:28N 29°19' W 094°48'0 0.0
2018-Jun-02 19:58N 29°19' W 094°48'  
Track history (hours):
 
Tides and Currents Weather Stations Pressure Air Temp Water Temp Dewpoint Dewpoint Depression Visibility Wind Speed Wind Dir Waves Ship Positions

M T Cape Bilbao

Last reported at 2018-Jun-12 17:33 UTC. Time now 2018-Jun-19 10:54 UTC.
Position N 09°11' W 079°52'.

Length 176 m; draft 7.1 m.

Type: Tanker. MMSI: 538002616.

Date/timePositionNaut miles runAvg speedWind from/ knotsBaromVisibWave heightAir tempDewpointWater temp
2018-Jun-12 17:33N 09°11' W 079°52'110.7
2018-Jun-12 17:28N 09°11' W 079°53'4 8.8
2018-Jun-12 17:00N 09°14' W 079°55'2 3.9
2018-Jun-12 16:30N 09°16' W 079°55'0 0.4
2018-Jun-12 16:00N 09°16' W 079°55'0 0.4
2018-Jun-12 15:12N 09°17' W 079°55'0 0.5
2018-Jun-12 14:59N 09°17' W 079°55'0 0.4
2018-Jun-12 14:30N 09°17' W 079°55'1 2.9
2018-Jun-12 14:00N 09°18' W 079°55'3 6.4
2018-Jun-12 13:30N 09°22' W 079°55'2 4.0
2018-Jun-12 13:01N 09°24' W 079°55'3 5.7
2018-Jun-12 12:31N 09°26' W 079°56'1 2.0
2018-Jun-12 12:00N 09°27' W 079°57'0 0.1
2018-Jun-12 11:24N 09°27' W 079°57'0 0.0
2018-Jun-12 10:57N 09°27' W 079°57'0 0.0
2018-Jun-12 10:24N 09°27' W 079°57'0 0.0
2018-Jun-12 10:00N 09°27' W 079°57'0 0.0
2018-Jun-12 07:30N 09°27' W 079°57'0 0.0
2018-Jun-12 06:54N 09°27' W 079°57'0 0.0
2018-Jun-12 06:18N 09°27' W 079°57'0 0.1
2018-Jun-12 06:00N 09°27' W 079°57'0 0.0
2018-Jun-12 05:30N 09°27' W 079°57'0 0.0
2018-Jun-12 04:54N 09°27' W 079°57'0 0.0
2018-Jun-12 04:30N 09°27' W 079°57'0 0.0
2018-Jun-12 03:54N 09°27' W 079°57'0 0.0
2018-Jun-12 03:03N 09°27' W 079°57'0 0.0
2018-Jun-12 01:30N 09°27' W 079°57'0 0.0
2018-Jun-12 00:54N 09°27' W 079°57'0 0.0
2018-Jun-12 00:30N 09°27' W 079°57'0 0.0
2018-Jun-12 00:00N 09°27' W 079°57'0 0.0
2018-Jun-11 23:21N 09°27' W 079°57'0 0.1
2018-Jun-11 22:51N 09°27' W 079°57'0 0.0
2018-Jun-11 22:27N 09°27' W 079°57'0 0.0
2018-Jun-11 22:00N 09°27' W 079°57'0 0.0
2018-Jun-11 21:06N 09°27' W 079°57'0 0.0
2018-Jun-11 20:54N 09°27' W 079°57'0 0.0
2018-Jun-11 20:30N 09°27' W 079°57'0 0.1
2018-Jun-11 20:00N 09°27' W 079°57'0 0.0
2018-Jun-11 19:30N 09°27' W 079°57'0 0.0
2018-Jun-11 19:00N 09°27' W 079°57'0 0.0
2018-Jun-11 18:30N 09°27' W 079°57'0 0.0
2018-Jun-11 18:00N 09°27' W 079°57'0 0.1
2018-Jun-11 17:30N 09°27' W 079°57'0 0.1
2018-Jun-11 16:54N 09°27' W 079°57'0 0.1
2018-Jun-11 16:30N 09°27' W 079°57'0 0.0
2018-Jun-11 16:00N 09°27' W 079°57'0 0.0
2018-Jun-11 15:30N 09°27' W 079°57'0 0.0
2018-Jun-11 15:00N 09°27' W 079°57'0 0.0
2018-Jun-11 14:30N 09°27' W 079°57'0 0.0
2018-Jun-11 14:00N 09°27' W 079°57'0 0.0
2018-Jun-11 13:30N 09°27' W 079°57'0 0.0
2018-Jun-11 13:00N 09°27' W 079°57'0 0.0
2018-Jun-11 12:30N 09°27' W 079°57'0 0.0
2018-Jun-11 12:00N 09°27' W 079°57'0 0.0
2018-Jun-11 11:30N 09°27' W 079°57'0 0.0
2018-Jun-11 11:00N 09°27' W 079°57'0 0.0
2018-Jun-11 10:30N 09°27' W 079°57'0 0.0
2018-Jun-11 10:00N 09°27' W 079°57'0 0.0
2018-Jun-11 09:30N 09°27' W 079°57'0 0.0
2018-Jun-11 09:00N 09°27' W 079°57'0 0.0
2018-Jun-11 08:30N 09°27' W 079°57'0 0.0
2018-Jun-11 08:00N 09°27' W 079°57'0 0.0
2018-Jun-11 07:30N 09°27' W 079°57'0 0.0
2018-Jun-11 07:00N 09°27' W 079°57'0 0.1
2018-Jun-11 06:30N 09°27' W 079°57'1 2.8
2018-Jun-11 06:00N 09°27' W 079°56'1 2.4
2018-Jun-11 05:30N 09°27' W 079°55'1 2.7
2018-Jun-11 05:00N 09°29' W 079°54'4 8.3
2018-Jun-11 04:30N 09°33' W 079°53'610.2
2018-Jun-11 03:58N 09°38' W 079°52'  
2018-Jun-05 06:24N 28°56' W 094°26'510.4
2018-Jun-05 05:54N 29°01' W 094°26'15 9.8
2018-Jun-05 04:20N 29°15' W 094°34'310.1
2018-Jun-05 04:00N 29°18' W 094°36'511.2
2018-Jun-05 03:30N 29°21' W 094°42'5 9.2
2018-Jun-05 03:00N 29°19' W 094°47'2 3.1
2018-Jun-05 02:30N 29°19' W 094°48'0 0.0
2018-Jun-05 02:00N 29°19' W 094°48'0 0.0
2018-Jun-05 01:28N 29°19' W 094°48'0 0.0
2018-Jun-05 00:58N 29°19' W 094°48'0 0.0
2018-Jun-05 00:28N 29°19' W 094°48'0 0.0
2018-Jun-04 23:58N 29°19' W 094°48'0 0.0
2018-Jun-04 23:28N 29°19' W 094°48'0 0.0
2018-Jun-04 22:55N 29°19' W 094°48'0 0.0
2018-Jun-04 22:22N 29°18' W 094°48'0 0.1
2018-Jun-04 21:58N 29°19' W 094°48'0 0.0
2018-Jun-04 21:28N 29°19' W 094°48'0 0.0
2018-Jun-04 20:58N 29°18' W 094°48'0 0.0
2018-Jun-04 20:28N 29°19' W 094°48'0 0.0
2018-Jun-04 19:55N 29°19' W 094°48'0 0.0
2018-Jun-04 19:28N 29°19' W 094°48'0 0.0
2018-Jun-04 18:58N 29°19' W 094°48'0 0.0
2018-Jun-04 18:28N 29°19' W 094°48'0 0.0
2018-Jun-04 17:52N 29°19' W 094°48'0 0.0
2018-Jun-04 17:28N 29°19' W 094°48'0 0.0
2018-Jun-04 16:58N 29°18' W 094°48'0 0.0
2018-Jun-04 15:37N 29°19' W 094°48'0 0.0
2018-Jun-04 14:37N 29°19' W 094°48'0 0.0
2018-Jun-04 14:25N 29°19' W 094°48'0 0.0
2018-Jun-04 13:52N 29°19' W 094°48'0 0.0
2018-Jun-04 13:25N 29°19' W 094°48'0 0.0
2018-Jun-04 12:58N 29°19' W 094°48'0 0.0
2018-Jun-04 12:28N 29°19' W 094°48'0 0.0
2018-Jun-04 11:55N 29°19' W 094°48'0 0.0
2018-Jun-04 11:28N 29°18' W 094°48'0 0.0
2018-Jun-04 10:58N 29°19' W 094°48'0 0.0
2018-Jun-04 10:28N 29°19' W 094°48'0 0.0
2018-Jun-04 09:58N 29°19' W 094°48'0 0.0
2018-Jun-04 09:28N 29°19' W 094°48'0 0.0
2018-Jun-04 08:58N 29°19' W 094°48'0 0.0
2018-Jun-04 08:28N 29°19' W 094°48'0 0.0
2018-Jun-04 07:58N 29°19' W 094°48'0 0.0
2018-Jun-04 07:25N 29°19' W 094°48'0 0.0
2018-Jun-04 06:58N 29°19' W 094°48'0 0.0
2018-Jun-04 06:25N 29°19' W 094°48'0 0.0
2018-Jun-04 05:49N 29°19' W 094°48'0 0.0
2018-Jun-04 05:25N 29°19' W 094°48'0 0.0
2018-Jun-04 04:55N 29°19' W 094°48'0 0.0
2018-Jun-04 04:28N 29°19' W 094°48'0 0.0
2018-Jun-04 03:58N 29°19' W 094°48'0 0.0
2018-Jun-04 03:25N 29°19' W 094°48'0 0.0
2018-Jun-04 02:58N 29°19' W 094°48'0 0.0
2018-Jun-04 02:28N 29°18' W 094°48'0 0.0
2018-Jun-04 01:55N 29°19' W 094°48'0 0.0
2018-Jun-04 01:28N 29°19' W 094°48'0 0.0
2018-Jun-04 00:55N 29°19' W 094°48'0 0.0
2018-Jun-04 00:25N 29°19' W 094°48'0 0.0
2018-Jun-03 23:55N 29°19' W 094°48'0 0.0
2018-Jun-03 23:25N 29°19' W 094°48'0 0.0
2018-Jun-03 22:58N 29°19' W 094°48'0 0.0
2018-Jun-03 22:28N 29°18' W 094°48'0 0.0
2018-Jun-03 21:58N 29°19' W 094°48'0 0.0
2018-Jun-03 21:25N 29°19' W 094°48'0 0.0
2018-Jun-03 20:58N 29°18' W 094°48'0 0.0
2018-Jun-03 20:25N 29°19' W 094°48'0 0.0
2018-Jun-03 19:55N 29°19' W 094°48'0 0.0
2018-Jun-03 19:28N 29°19' W 094°48'0 0.0
2018-Jun-03 18:58N 29°19' W 094°48'0 0.0
2018-Jun-03 18:28N 29°19' W 094°48'0 0.0
2018-Jun-03 17:58N 29°19' W 094°48'0 0.0
2018-Jun-03 17:28N 29°19' W 094°48'0 0.0
2018-Jun-03 16:58N 29°18' W 094°48'0 0.0
2018-Jun-03 16:22N 29°19' W 094°48'0 0.0
2018-Jun-03 15:55N 29°19' W 094°48'0 0.0
2018-Jun-03 15:28N 29°19' W 094°48'0 0.0
2018-Jun-03 14:55N 29°19' W 094°48'0 0.0
2018-Jun-03 14:25N 29°19' W 094°48'0 0.0
2018-Jun-03 13:55N 29°19' W 094°48'0 0.0
2018-Jun-03 13:28N 29°19' W 094°48'0 0.0
2018-Jun-03 12:58N 29°19' W 094°48'0 0.0
2018-Jun-03 12:28N 29°19' W 094°48'0 0.0
2018-Jun-03 11:58N 29°19' W 094°48'0 0.0
2018-Jun-03 11:28N 29°19' W 094°48'0 0.0
2018-Jun-03 10:46N 29°19' W 094°48'0 0.0
2018-Jun-03 10:28N 29°19' W 094°48'0 0.0
2018-Jun-03 09:58N 29°19' W 094°48'0 0.0
2018-Jun-03 09:28N 29°19' W 094°48'0 0.0
2018-Jun-03 08:58N 29°19' W 094°48'0 0.0
2018-Jun-03 08:25N 29°19' W 094°48'0 0.0
2018-Jun-03 07:58N 29°19' W 094°48'0 0.0
2018-Jun-03 07:28N 29°18' W 094°48'0 0.0
2018-Jun-03 06:52N 29°19' W 094°48'0 0.0
2018-Jun-03 06:25N 29°19' W 094°48'0 0.0
2018-Jun-03 05:58N 29°18' W 094°48'0 0.0
2018-Jun-03 05:28N 29°19' W 094°48'0 0.0
2018-Jun-03 04:55N 29°19' W 094°48'0 0.0
2018-Jun-03 04:19N 29°19' W 094°48'0 0.0
2018-Jun-03 03:58N 29°19' W 094°48'0 0.0
2018-Jun-03 03:28N 29°19' W 094°48'0 0.0
2018-Jun-03 02:55N 29°19' W 094°48'0 0.0
2018-Jun-03 02:25N 29°19' W 094°48'0 0.0
2018-Jun-03 01:55N 29°19' W 094°48'0 0.0
2018-Jun-03 01:28N 29°18' W 094°48'0 0.0
2018-Jun-03 00:58N 29°18' W 094°48'0 0.0
2018-Jun-03 00:28N 29°19' W 094°48'0 0.0
2018-Jun-02 23:52N 29°19' W 094°48'0 0.0
2018-Jun-02 23:31N 29°19' W 094°48'0 0.0
2018-Jun-02 22:58N 29°18' W 094°48'0 0.0
2018-Jun-02 22:28N 29°19' W 094°48'0 0.0
2018-Jun-02 21:55N 29°19' W 094°48'0 0.0
2018-Jun-02 21:28N 29°19' W 094°48'0 0.0
2018-Jun-02 20:58N 29°19' W 094°48'0 0.0
2018-Jun-02 20:28N 29°19' W 094°48'0 0.0
2018-Jun-02 19:58N 29°19' W 094°48'  

Dump ship's entire track history